sensor_id;sensor_type;location;lat;lon;timestamp;P1;durP1;ratioP1;P2;durP2;ratioP2
20437;SDS011;17436;50.338;8.810;2022-07-18T00:00:19;3.50;;;1.40;;
20437;SDS011;17436;50.338;8.810;2022-07-18T00:02:47;3.10;;;1.33;;
20437;SDS011;17436;50.338;8.810;2022-07-18T00:05:14;4.80;;;1.40;;
20437;SDS011;17436;50.338;8.810;2022-07-18T00:07:41;5.03;;;1.20;;
20437;SDS011;17436;50.338;8.810;2022-07-18T00:10:08;5.37;;;1.17;;
20437;SDS011;17436;50.338;8.810;2022-07-18T00:12:35;3.50;;;1.17;;
20437;SDS011;17436;50.338;8.810;2022-07-18T00:15:01;3.40;;;1.30;;
20437;SDS011;17436;50.338;8.810;2022-07-18T00:17:28;6.33;;;1.47;;
20437;SDS011;17436;50.338;8.810;2022-07-18T00:19:57;2.73;;;1.03;;
20437;SDS011;17436;50.338;8.810;2022-07-18T00:22:23;8.77;;;1.30;;
20437;SDS011;17436;50.338;8.810;2022-07-18T00:24:51;2.80;;;1.20;;
20437;SDS011;17436;50.338;8.810;2022-07-18T00:27:19;3.07;;;1.00;;
20437;SDS011;17436;50.338;8.810;2022-07-18T00:29:46;3.90;;;1.27;;
20437;SDS011;17436;50.338;8.810;2022-07-18T00:32:12;2.93;;;1.30;;
20437;SDS011;17436;50.338;8.810;2022-07-18T00:34:39;2.43;;;1.30;;
20437;SDS011;17436;50.338;8.810;2022-07-18T00:37:07;5.07;;;1.30;;
20437;SDS011;17436;50.338;8.810;2022-07-18T00:39:34;2.57;;;1.50;;
20437;SDS011;17436;50.338;8.810;2022-07-18T00:42:01;6.43;;;1.40;;
20437;SDS011;17436;50.338;8.810;2022-07-18T00:44:28;4.10;;;1.50;;
20437;SDS011;17436;50.338;8.810;2022-07-18T00:46:56;4.90;;;1.23;;
20437;SDS011;17436;50.338;8.810;2022-07-18T00:49:27;1.73;;;0.97;;
20437;SDS011;17436;50.338;8.810;2022-07-18T00:51:54;4.77;;;1.20;;
20437;SDS011;17436;50.338;8.810;2022-07-18T00:54:22;4.07;;;1.00;;
20437;SDS011;17436;50.338;8.810;2022-07-18T00:56:49;5.10;;;1.40;;
20437;SDS011;17436;50.338;8.810;2022-07-18T00:59:17;2.97;;;1.20;;
20437;SDS011;17436;50.338;8.810;2022-07-18T01:01:44;4.73;;;1.00;;
20437;SDS011;17436;50.338;8.810;2022-07-18T01:04:13;4.43;;;0.83;;
20437;SDS011;17436;50.338;8.810;2022-07-18T01:06:41;2.53;;;1.03;;
20437;SDS011;17436;50.338;8.810;2022-07-18T01:09:08;1.87;;;0.90;;
20437;SDS011;17436;50.338;8.810;2022-07-18T01:11:37;2.20;;;0.90;;
20437;SDS011;17436;50.338;8.810;2022-07-18T01:14:04;5.50;;;1.20;;
20437;SDS011;17436;50.338;8.810;2022-07-18T01:16:31;4.57;;;1.10;;
20437;SDS011;17436;50.338;8.810;2022-07-18T01:18:59;4.00;;;1.00;;
20437;SDS011;17436;50.338;8.810;2022-07-18T01:21:30;2.90;;;1.10;;
20437;SDS011;17436;50.338;8.810;2022-07-18T01:23:57;2.97;;;1.20;;
20437;SDS011;17436;50.338;8.810;2022-07-18T01:26:25;3.60;;;1.27;;
20437;SDS011;17436;50.338;8.810;2022-07-18T01:28:52;1.30;;;0.90;;
20437;SDS011;17436;50.338;8.810;2022-07-18T01:31:21;5.60;;;1.17;;
20437;SDS011;17436;50.338;8.810;2022-07-18T01:33:47;3.53;;;1.10;;
20437;SDS011;17436;50.338;8.810;2022-07-18T01:36:14;4.20;;;1.37;;
20437;SDS011;17436;50.338;8.810;2022-07-18T01:38:42;1.77;;;0.90;;
20437;SDS011;17436;50.338;8.810;2022-07-18T01:41:09;2.87;;;1.20;;
20437;SDS011;17436;50.338;8.810;2022-07-18T01:43:39;2.83;;;1.00;;
20437;SDS011;17436;50.338;8.810;2022-07-18T01:46:07;2.47;;;0.97;;
20437;SDS011;17436;50.338;8.810;2022-07-18T01:48:36;2.17;;;1.23;;
20437;SDS011;17436;50.338;8.810;2022-07-18T01:51:04;2.00;;;1.10;;
20437;SDS011;17436;50.338;8.810;2022-07-18T01:53:34;2.47;;;1.30;;
20437;SDS011;17436;50.338;8.810;2022-07-18T01:56:06;2.60;;;1.07;;
20437;SDS011;17436;50.338;8.810;2022-07-18T01:58:33;2.83;;;1.30;;
20437;SDS011;17436;50.338;8.810;2022-07-18T02:01:01;2.60;;;1.20;;
20437;SDS011;17436;50.338;8.810;2022-07-18T02:03:29;2.37;;;1.37;;
20437;SDS011;17436;50.338;8.810;2022-07-18T02:05:56;3.93;;;1.33;;
20437;SDS011;17436;50.338;8.810;2022-07-18T02:08:23;3.23;;;1.17;;
20437;SDS011;17436;50.338;8.810;2022-07-18T02:10:49;1.90;;;1.20;;
20437;SDS011;17436;50.338;8.810;2022-07-18T02:13:18;5.00;;;1.10;;
20437;SDS011;17436;50.338;8.810;2022-07-18T02:15:45;4.20;;;1.30;;
20437;SDS011;17436;50.338;8.810;2022-07-18T02:18:13;1.60;;;1.00;;
20437;SDS011;17436;50.338;8.810;2022-07-18T02:20:39;3.07;;;0.90;;
20437;SDS011;17436;50.338;8.810;2022-07-18T02:23:06;3.20;;;1.40;;
20437;SDS011;17436;50.338;8.810;2022-07-18T02:25:33;3.43;;;1.27;;
20437;SDS011;17436;50.338;8.810;2022-07-18T02:28:00;3.67;;;1.33;;
20437;SDS011;17436;50.338;8.810;2022-07-18T02:30:28;2.00;;;1.00;;
20437;SDS011;17436;50.338;8.810;2022-07-18T02:32:59;5.07;;;1.20;;
20437;SDS011;17436;50.338;8.810;2022-07-18T02:35:26;3.33;;;1.00;;
20437;SDS011;17436;50.338;8.810;2022-07-18T02:37:53;3.30;;;1.20;;
20437;SDS011;17436;50.338;8.810;2022-07-18T02:40:20;3.17;;;1.20;;
20437;SDS011;17436;50.338;8.810;2022-07-18T02:42:47;2.77;;;1.40;;
20437;SDS011;17436;50.338;8.810;2022-07-18T02:45:14;3.10;;;1.30;;
20437;SDS011;17436;50.338;8.810;2022-07-18T02:47:42;5.43;;;0.97;;
20437;SDS011;17436;50.338;8.810;2022-07-18T02:50:09;3.20;;;1.30;;
20437;SDS011;17436;50.338;8.810;2022-07-18T02:52:38;6.60;;;1.40;;
20437;SDS011;17436;50.338;8.810;2022-07-18T02:55:06;4.63;;;1.57;;
20437;SDS011;17436;50.338;8.810;2022-07-18T02:57:33;5.13;;;1.50;;
20437;SDS011;17436;50.338;8.810;2022-07-18T03:00:00;3.23;;;1.70;;
20437;SDS011;17436;50.338;8.810;2022-07-18T03:02:27;6.73;;;2.17;;
20437;SDS011;17436;50.338;8.810;2022-07-18T03:04:56;3.93;;;1.87;;
20437;SDS011;17436;50.338;8.810;2022-07-18T03:07:26;60.57;;;7.00;;
20437;SDS011;17436;50.338;8.810;2022-07-18T03:09:53;3.53;;;2.10;;
20437;SDS011;17436;50.338;8.810;2022-07-18T03:12:19;4.57;;;2.00;;
20437;SDS011;17436;50.338;8.810;2022-07-18T03:14:46;13.07;;;7.13;;
20437;SDS011;17436;50.338;8.810;2022-07-18T03:17:14;8.93;;;4.97;;
20437;SDS011;17436;50.338;8.810;2022-07-18T03:19:40;4.97;;;3.33;;
20437;SDS011;17436;50.338;8.810;2022-07-18T03:22:09;23.57;;;6.03;;
20437;SDS011;17436;50.338;8.810;2022-07-18T03:24:35;35.77;;;4.77;;
20437;SDS011;17436;50.338;8.810;2022-07-18T03:27:02;3.97;;;2.40;;
20437;SDS011;17436;50.338;8.810;2022-07-18T03:29:29;2.50;;;1.97;;
20437;SDS011;17436;50.338;8.810;2022-07-18T03:31:55;9.63;;;7.93;;
20437;SDS011;17436;50.338;8.810;2022-07-18T03:34:22;5.90;;;2.77;;
20437;SDS011;17436;50.338;8.810;2022-07-18T03:36:49;4.87;;;3.77;;
20437;SDS011;17436;50.338;8.810;2022-07-18T03:39:17;8.97;;;5.30;;
20437;SDS011;17436;50.338;8.810;2022-07-18T03:41:44;5.23;;;2.43;;
20437;SDS011;17436;50.338;8.810;2022-07-18T03:44:11;20.47;;;12.90;;
20437;SDS011;17436;50.338;8.810;2022-07-18T03:46:37;7.50;;;6.33;;
20437;SDS011;17436;50.338;8.810;2022-07-18T03:49:04;26.80;;;6.00;;
20437;SDS011;17436;50.338;8.810;2022-07-18T03:51:31;5.00;;;2.57;;
20437;SDS011;17436;50.338;8.810;2022-07-18T03:53:57;5.43;;;3.00;;
20437;SDS011;17436;50.338;8.810;2022-07-18T03:56:25;9.70;;;7.00;;
20437;SDS011;17436;50.338;8.810;2022-07-18T03:58:53;50.83;;;14.27;;
20437;SDS011;17436;50.338;8.810;2022-07-18T04:01:21;62.77;;;11.50;;
20437;SDS011;17436;50.338;8.810;2022-07-18T04:03:48;5.80;;;4.07;;
20437;SDS011;17436;50.338;8.810;2022-07-18T04:06:14;249.17;;;30.93;;
20437;SDS011;17436;50.338;8.810;2022-07-18T04:08:41;783.70;;;109.90;;
20437;SDS011;17436;50.338;8.810;2022-07-18T04:11:08;1653.63;;;170.33;;
20437;SDS011;17436;50.338;8.810;2022-07-18T04:13:36;1371.67;;;196.23;;
20437;SDS011;17436;50.338;8.810;2022-07-18T04:16:03;892.70;;;95.80;;
20437;SDS011;17436;50.338;8.810;2022-07-18T04:18:29;403.70;;;74.60;;
20437;SDS011;17436;50.338;8.810;2022-07-18T04:20:56;909.23;;;59.93;;
20437;SDS011;17436;50.338;8.810;2022-07-18T04:23:24;741.40;;;78.07;;
20437;SDS011;17436;50.338;8.810;2022-07-18T04:25:51;854.87;;;116.20;;
20437;SDS011;17436;50.338;8.810;2022-07-18T04:28:18;954.70;;;100.23;;
20437;SDS011;17436;50.338;8.810;2022-07-18T04:30:46;694.60;;;62.50;;
20437;SDS011;17436;50.338;8.810;2022-07-18T04:33:14;843.60;;;77.87;;
20437;SDS011;17436;50.338;8.810;2022-07-18T04:35:41;1757.27;;;188.40;;
20437;SDS011;17436;50.338;8.810;2022-07-18T04:38:08;1625.93;;;218.87;;
20437;SDS011;17436;50.338;8.810;2022-07-18T04:40:36;1342.73;;;170.50;;
20437;SDS011;17436;50.338;8.810;2022-07-18T04:43:04;1454.37;;;224.93;;
20437;SDS011;17436;50.338;8.810;2022-07-18T04:45:31;1223.60;;;201.57;;
20437;SDS011;17436;50.338;8.810;2022-07-18T04:47:59;1866.67;;;154.07;;
20437;SDS011;17436;50.338;8.810;2022-07-18T04:50:26;1913.80;;;224.53;;
20437;SDS011;17436;50.338;8.810;2022-07-18T04:52:56;1999.90;;;239.83;;
20437;SDS011;17436;50.338;8.810;2022-07-18T04:55:27;1999.90;;;439.07;;
20437;SDS011;17436;50.338;8.810;2022-07-18T04:57:54;1999.90;;;734.90;;
20437;SDS011;17436;50.338;8.810;2022-07-18T05:00:22;1999.90;;;418.13;;
20437;SDS011;17436;50.338;8.810;2022-07-18T05:02:50;1999.90;;;238.03;;
20437;SDS011;17436;50.338;8.810;2022-07-18T05:05:21;1999.90;;;999.90;;
20437;SDS011;17436;50.338;8.810;2022-07-18T05:07:49;1999.90;;;999.90;;
20437;SDS011;17436;50.338;8.810;2022-07-18T05:10:16;1999.90;;;434.87;;
20437;SDS011;17436;50.338;8.810;2022-07-18T05:12:46;1999.90;;;999.90;;
20437;SDS011;17436;50.338;8.810;2022-07-18T05:15:15;1912.63;;;699.67;;
20437;SDS011;17436;50.338;8.810;2022-07-18T05:17:44;1999.90;;;737.50;;
20437;SDS011;17436;50.338;8.810;2022-07-18T05:20:11;1999.90;;;999.90;;
20437;SDS011;17436;50.338;8.810;2022-07-18T05:22:41;1999.90;;;999.90;;
20437;SDS011;17436;50.338;8.810;2022-07-18T05:25:09;1999.90;;;442.20;;
20437;SDS011;17436;50.338;8.810;2022-07-18T05:27:37;1879.33;;;128.70;;
20437;SDS011;17436;50.338;8.810;2022-07-18T05:30:06;1999.90;;;999.90;;
20437;SDS011;17436;50.338;8.810;2022-07-18T05:32:34;1999.90;;;999.90;;
20437;SDS011;17436;50.338;8.810;2022-07-18T05:35:01;1999.90;;;999.90;;
20437;SDS011;17436;50.338;8.810;2022-07-18T05:37:28;1999.90;;;999.90;;
20437;SDS011;17436;50.338;8.810;2022-07-18T05:39:56;1999.90;;;748.30;;
20437;SDS011;17436;50.338;8.810;2022-07-18T05:42:23;1999.90;;;999.90;;
20437;SDS011;17436;50.338;8.810;2022-07-18T05:44:49;1999.90;;;999.90;;
20437;SDS011;17436;50.338;8.810;2022-07-18T05:47:20;1999.90;;;730.93;;
20437;SDS011;17436;50.338;8.810;2022-07-18T05:49:47;1999.90;;;746.70;;
20437;SDS011;17436;50.338;8.810;2022-07-18T05:52:14;1999.90;;;244.73;;
20437;SDS011;17436;50.338;8.810;2022-07-18T05:54:40;1999.90;;;642.67;;
20437;SDS011;17436;50.338;8.810;2022-07-18T05:57:08;1999.90;;;999.90;;
20437;SDS011;17436;50.338;8.810;2022-07-18T05:59:35;1999.90;;;264.60;;
20437;SDS011;17436;50.338;8.810;2022-07-18T06:02:02;1969.32;;;784.72;;
20437;SDS011;17436;50.338;8.810;2022-07-18T06:04:29;1999.90;;;801.42;;
20437;SDS011;17436;50.338;8.810;2022-07-18T06:06:56;1876.05;;;770.67;;
20437;SDS011;17436;50.338;8.810;2022-07-18T06:09:24;1999.90;;;999.90;;
20437;SDS011;17436;50.338;8.810;2022-07-18T06:11:55;1999.90;;;999.90;;
20437;SDS011;17436;50.338;8.810;2022-07-18T06:14:25;1999.90;;;182.83;;
20437;SDS011;17436;50.338;8.810;2022-07-18T06:16:52;1999.90;;;999.90;;
20437;SDS011;17436;50.338;8.810;2022-07-18T06:19:21;1999.90;;;719.63;;
20437;SDS011;17436;50.338;8.810;2022-07-18T06:21:47;1999.90;;;999.90;;
20437;SDS011;17436;50.338;8.810;2022-07-18T06:24:14;1999.90;;;999.90;;
20437;SDS011;17436;50.338;8.810;2022-07-18T06:26:41;1999.90;;;999.90;;
20437;SDS011;17436;50.338;8.810;2022-07-18T06:29:08;1913.87;;;719.67;;
20437;SDS011;17436;50.338;8.810;2022-07-18T06:31:37;1999.90;;;999.90;;
20437;SDS011;17436;50.338;8.810;2022-07-18T06:34:03;1999.90;;;487.07;;
20437;SDS011;17436;50.338;8.810;2022-07-18T06:36:30;1999.90;;;999.90;;
20437;SDS011;17436;50.338;8.810;2022-07-18T06:38:58;1999.90;;;772.63;;
20437;SDS011;17436;50.338;8.810;2022-07-18T06:41:27;1999.90;;;999.90;;
20437;SDS011;17436;50.338;8.810;2022-07-18T06:43:53;1999.90;;;497.20;;
20437;SDS011;17436;50.338;8.810;2022-07-18T06:46:20;1999.90;;;770.23;;
20437;SDS011;17436;50.338;8.810;2022-07-18T06:48:48;1999.90;;;999.90;;
20437;SDS011;17436;50.338;8.810;2022-07-18T06:51:16;1999.90;;;999.90;;
20437;SDS011;17436;50.338;8.810;2022-07-18T06:53:42;1999.90;;;999.90;;
20437;SDS011;17436;50.338;8.810;2022-07-18T06:56:09;1999.90;;;461.20;;
20437;SDS011;17436;50.338;8.810;2022-07-18T06:58:36;1999.90;;;514.80;;
20437;SDS011;17436;50.338;8.810;2022-07-18T07:01:03;1999.90;;;538.47;;
20437;SDS011;17436;50.338;8.810;2022-07-18T07:03:31;1999.90;;;999.90;;
20437;SDS011;17436;50.338;8.810;2022-07-18T07:05:59;1999.90;;;999.90;;
20437;SDS011;17436;50.338;8.810;2022-07-18T07:08:26;1999.90;;;999.90;;
20437;SDS011;17436;50.338;8.810;2022-07-18T07:10:53;1999.90;;;999.90;;
20437;SDS011;17436;50.338;8.810;2022-07-18T07:13:21;1999.90;;;999.90;;
20437;SDS011;17436;50.338;8.810;2022-07-18T07:15:48;1999.90;;;999.90;;
20437;SDS011;17436;50.338;8.810;2022-07-18T07:18:15;1999.90;;;999.90;;
20437;SDS011;17436;50.338;8.810;2022-07-18T07:20:42;1999.90;;;999.90;;
20437;SDS011;17436;50.338;8.810;2022-07-18T07:23:10;1999.90;;;999.90;;
20437;SDS011;17436;50.338;8.810;2022-07-18T07:25:37;1999.90;;;541.23;;
20437;SDS011;17436;50.338;8.810;2022-07-18T07:28:04;1999.90;;;999.90;;
20437;SDS011;17436;50.338;8.810;2022-07-18T07:30:32;1999.90;;;999.90;;
20437;SDS011;17436;50.338;8.810;2022-07-18T07:33:00;1637.03;;;125.07;;
20437;SDS011;17436;50.338;8.810;2022-07-18T07:35:28;1999.90;;;704.27;;
20437;SDS011;17436;50.338;8.810;2022-07-18T07:37:56;1999.90;;;455.33;;
20437;SDS011;17436;50.338;8.810;2022-07-18T07:40:25;1999.90;;;999.90;;
20437;SDS011;17436;50.338;8.810;2022-07-18T07:43:03;1999.90;;;722.93;;
20437;SDS011;17436;50.338;8.810;2022-07-18T07:45:31;1999.90;;;999.90;;
20437;SDS011;17436;50.338;8.810;2022-07-18T07:47:58;1999.90;;;999.90;;
20437;SDS011;17436;50.338;8.810;2022-07-18T07:50:25;1999.90;;;999.90;;
20437;SDS011;17436;50.338;8.810;2022-07-18T07:52:54;1999.90;;;999.90;;
20437;SDS011;17436;50.338;8.810;2022-07-18T07:55:24;1999.90;;;999.90;;
20437;SDS011;17436;50.338;8.810;2022-07-18T07:57:52;1999.90;;;999.90;;
20437;SDS011;17436;50.338;8.810;2022-07-18T08:00:19;1999.90;;;999.90;;
20437;SDS011;17436;50.338;8.810;2022-07-18T08:02:50;1999.90;;;999.90;;
20437;SDS011;17436;50.338;8.810;2022-07-18T08:05:19;1999.90;;;999.90;;
20437;SDS011;17436;50.338;8.810;2022-07-18T08:07:46;1999.90;;;999.90;;
20437;SDS011;17436;50.338;8.810;2022-07-18T08:10:13;1999.90;;;999.90;;
20437;SDS011;17436;50.338;8.810;2022-07-18T08:12:42;1999.90;;;999.90;;
20437;SDS011;17436;50.338;8.810;2022-07-18T08:15:09;1999.90;;;999.90;;
20437;SDS011;17436;50.338;8.810;2022-07-18T08:17:36;1999.90;;;999.90;;
20437;SDS011;17436;50.338;8.810;2022-07-18T08:20:04;1999.90;;;999.90;;
20437;SDS011;17436;50.338;8.810;2022-07-18T08:22:31;1999.90;;;461.60;;
20437;SDS011;17436;50.338;8.810;2022-07-18T08:24:59;1999.90;;;999.90;;
20437;SDS011;17436;50.338;8.810;2022-07-18T08:27:27;1999.90;;;999.90;;
20437;SDS011;17436;50.338;8.810;2022-07-18T08:29:55;1526.73;;;687.90;;
20437;SDS011;17436;50.338;8.810;2022-07-18T08:32:23;1999.90;;;715.70;;
20437;SDS011;17436;50.338;8.810;2022-07-18T08:34:49;1999.90;;;999.90;;
20437;SDS011;17436;50.338;8.810;2022-07-18T08:37:20;1999.90;;;999.90;;
20437;SDS011;17436;50.338;8.810;2022-07-18T08:39:47;1999.90;;;999.90;;
20437;SDS011;17436;50.338;8.810;2022-07-18T08:42:14;1999.90;;;999.90;;
20437;SDS011;17436;50.338;8.810;2022-07-18T08:44:43;1999.90;;;999.90;;
20437;SDS011;17436;50.338;8.810;2022-07-18T08:47:12;1999.90;;;999.90;;
20437;SDS011;17436;50.338;8.810;2022-07-18T08:49:40;1999.90;;;426.43;;
20437;SDS011;17436;50.338;8.810;2022-07-18T08:52:07;1999.90;;;999.90;;
20437;SDS011;17436;50.338;8.810;2022-07-18T08:54:34;1999.90;;;999.90;;
20437;SDS011;17436;50.338;8.810;2022-07-18T08:57:02;1999.90;;;999.90;;
20437;SDS011;17436;50.338;8.810;2022-07-18T08:59:30;1999.90;;;999.90;;
20437;SDS011;17436;50.338;8.810;2022-07-18T09:01:56;1999.90;;;999.90;;
20437;SDS011;17436;50.338;8.810;2022-07-18T09:04:34;1999.90;;;999.90;;
20437;SDS011;17436;50.338;8.810;2022-07-18T09:07:03;1999.90;;;999.90;;
20437;SDS011;17436;50.338;8.810;2022-07-18T09:09:30;1999.90;;;999.90;;
20437;SDS011;17436;50.338;8.810;2022-07-18T09:11:59;1999.90;;;419.37;;
20437;SDS011;17436;50.338;8.810;2022-07-18T09:14:29;1999.90;;;999.90;;
20437;SDS011;17436;50.338;8.810;2022-07-18T09:17:02;1999.90;;;999.90;;
20437;SDS011;17436;50.338;8.810;2022-07-18T09:19:30;1999.90;;;999.90;;
20437;SDS011;17436;50.338;8.810;2022-07-18T09:24:58;1999.90;;;999.90;;
20437;SDS011;17436;50.338;8.810;2022-07-18T09:27:31;1999.90;;;999.90;;
20437;SDS011;17436;50.338;8.810;2022-07-18T09:30:06;1999.90;;;999.90;;
20437;SDS011;17436;50.338;8.810;2022-07-18T09:32:40;1853.57;;;377.27;;
20437;SDS011;17436;50.338;8.810;2022-07-18T09:35:09;1999.90;;;999.90;;
20437;SDS011;17436;50.338;8.810;2022-07-18T09:37:38;1999.90;;;404.63;;
20437;SDS011;17436;50.338;8.810;2022-07-18T09:40:13;1999.90;;;723.83;;
20437;SDS011;17436;50.338;8.810;2022-07-18T09:42:41;1999.90;;;999.90;;
20437;SDS011;17436;50.338;8.810;2022-07-18T09:45:08;1999.90;;;703.37;;
20437;SDS011;17436;50.338;8.810;2022-07-18T09:47:45;1660.03;;;680.37;;
20437;SDS011;17436;50.338;8.810;2022-07-18T09:50:19;1999.90;;;999.90;;
20437;SDS011;17436;50.338;8.810;2022-07-18T09:53:03;1712.17;;;689.73;;
20437;SDS011;17436;50.338;8.810;2022-07-18T09:55:31;1999.90;;;999.90;;
20437;SDS011;17436;50.338;8.810;2022-07-18T09:58:00;1999.90;;;999.90;;
20437;SDS011;17436;50.338;8.810;2022-07-18T10:00:29;1999.90;;;999.90;;
20437;SDS011;17436;50.338;8.810;2022-07-18T10:03:01;1999.90;;;318.13;;
20437;SDS011;17436;50.338;8.810;2022-07-18T10:05:30;1999.90;;;206.23;;
20437;SDS011;17436;50.338;8.810;2022-07-18T10:07:59;1999.90;;;999.90;;
20437;SDS011;17436;50.338;8.810;2022-07-18T10:10:28;1999.90;;;999.90;;
20437;SDS011;17436;50.338;8.810;2022-07-18T10:13:02;1999.90;;;999.90;;
20437;SDS011;17436;50.338;8.810;2022-07-18T10:15:31;1999.90;;;585.10;;
20437;SDS011;17436;50.338;8.810;2022-07-18T10:17:59;1999.90;;;792.88;;
20437;SDS011;17436;50.338;8.810;2022-07-18T10:20:27;1999.90;;;999.90;;
20437;SDS011;17436;50.338;8.810;2022-07-18T10:23:06;1999.90;;;173.85;;
20437;SDS011;17436;50.338;8.810;2022-07-18T10:25:34;1999.90;;;999.90;;
20437;SDS011;17436;50.338;8.810;2022-07-18T10:28:03;1999.90;;;999.90;;
20437;SDS011;17436;50.338;8.810;2022-07-18T10:30:36;1999.90;;;613.95;;
20437;SDS011;17436;50.338;8.810;2022-07-18T10:33:35;1999.90;;;999.90;;
20437;SDS011;17436;50.338;8.810;2022-07-18T10:36:05;1999.90;;;793.50;;
20437;SDS011;17436;50.338;8.810;2022-07-18T10:38:35;1990.70;;;536.15;;
20437;SDS011;17436;50.338;8.810;2022-07-18T10:41:06;1999.90;;;999.90;;
20437;SDS011;17436;50.338;8.810;2022-07-18T10:43:35;1999.90;;;999.90;;
20437;SDS011;17436;50.338;8.810;2022-07-18T10:46:05;1999.90;;;999.90;;
20437;SDS011;17436;50.338;8.810;2022-07-18T10:48:50;1999.90;;;999.90;;
20437;SDS011;17436;50.338;8.810;2022-07-18T10:51:19;1613.82;;;544.55;;
20437;SDS011;17436;50.338;8.810;2022-07-18T10:59:31;1999.90;;;999.90;;
20437;SDS011;17436;50.338;8.810;2022-07-18T11:01:59;1596.63;;;87.77;;
20437;SDS011;17436;50.338;8.810;2022-07-18T11:04:33;1999.90;;;999.90;;
20437;SDS011;17436;50.338;8.810;2022-07-18T11:07:09;1999.90;;;215.93;;
20437;SDS011;17436;50.338;8.810;2022-07-18T11:09:41;1999.90;;;784.45;;
20437;SDS011;17436;50.338;8.810;2022-07-18T11:12:19;1995.95;;;148.90;;
20437;SDS011;17436;50.338;8.810;2022-07-18T11:17:53;1999.90;;;789.42;;
20437;SDS011;17436;50.338;8.810;2022-07-18T11:20:25;1999.90;;;417.33;;
20437;SDS011;17436;50.338;8.810;2022-07-18T11:22:54;1999.90;;;803.72;;
20437;SDS011;17436;50.338;8.810;2022-07-18T11:25:26;1855.63;;;763.72;;
20437;SDS011;17436;50.338;8.810;2022-07-18T11:27:53;1999.90;;;999.90;;
20437;SDS011;17436;50.338;8.810;2022-07-18T11:30:20;1999.90;;;999.90;;
20437;SDS011;17436;50.338;8.810;2022-07-18T11:32:48;1859.65;;;762.42;;
20437;SDS011;17436;50.338;8.810;2022-07-18T11:35:20;1999.90;;;999.90;;
20437;SDS011;17436;50.338;8.810;2022-07-18T11:37:48;1999.90;;;999.90;;
20437;SDS011;17436;50.338;8.810;2022-07-18T11:40:15;1999.90;;;999.90;;
20437;SDS011;17436;50.338;8.810;2022-07-18T11:42:44;1999.90;;;999.90;;
20437;SDS011;17436;50.338;8.810;2022-07-18T11:45:13;1999.90;;;999.90;;
20437;SDS011;17436;50.338;8.810;2022-07-18T11:47:48;1999.90;;;413.80;;
20437;SDS011;17436;50.338;8.810;2022-07-18T11:50:16;1999.90;;;999.90;;
20437;SDS011;17436;50.338;8.810;2022-07-18T11:52:44;1999.90;;;170.43;;
20437;SDS011;17436;50.338;8.810;2022-07-18T11:55:12;1999.90;;;526.75;;
20437;SDS011;17436;50.338;8.810;2022-07-18T11:57:39;1999.90;;;140.05;;
20437;SDS011;17436;50.338;8.810;2022-07-18T12:00:17;1999.90;;;999.90;;
20437;SDS011;17436;50.338;8.810;2022-07-18T12:02:45;1999.90;;;999.90;;
20437;SDS011;17436;50.338;8.810;2022-07-18T12:05:12;1999.90;;;999.90;;
20437;SDS011;17436;50.338;8.810;2022-07-18T12:07:39;1999.90;;;252.10;;
20437;SDS011;17436;50.338;8.810;2022-07-18T12:10:15;1999.90;;;530.72;;
20437;SDS011;17436;50.338;8.810;2022-07-18T12:12:42;1999.90;;;482.60;;
20437;SDS011;17436;50.338;8.810;2022-07-18T12:15:09;1999.90;;;279.75;;
20437;SDS011;17436;50.338;8.810;2022-07-18T12:17:44;1999.90;;;999.90;;
20437;SDS011;17436;50.338;8.810;2022-07-18T12:20:13;1981.05;;;780.92;;
20437;SDS011;17436;50.338;8.810;2022-07-18T12:28:25;1999.90;;;999.90;;
20437;SDS011;17436;50.338;8.810;2022-07-18T12:30:55;1454.13;;;512.38;;
20437;SDS011;17436;50.338;8.810;2022-07-18T12:33:27;1999.90;;;334.02;;
20437;SDS011;17436;50.338;8.810;2022-07-18T12:35:54;1999.90;;;200.77;;
20437;SDS011;17436;50.338;8.810;2022-07-18T12:38:23;1999.90;;;352.52;;
20437;SDS011;17436;50.338;8.810;2022-07-18T12:40:50;1999.90;;;349.58;;
20437;SDS011;17436;50.338;8.810;2022-07-18T12:43:22;1999.90;;;583.72;;
20437;SDS011;17436;50.338;8.810;2022-07-18T12:45:51;1999.90;;;451.45;;
20437;SDS011;17436;50.338;8.810;2022-07-18T12:48:18;1999.90;;;999.90;;
20437;SDS011;17436;50.338;8.810;2022-07-18T12:50:53;1882.07;;;581.95;;
20437;SDS011;17436;50.338;8.810;2022-07-18T12:53:27;1999.90;;;181.80;;
20437;SDS011;17436;50.338;8.810;2022-07-18T12:55:55;1999.90;;;802.83;;
20437;SDS011;17436;50.338;8.810;2022-07-18T12:58:22;1999.90;;;999.90;;
20437;SDS011;17436;50.338;8.810;2022-07-18T13:00:49;1999.90;;;999.90;;
20437;SDS011;17436;50.338;8.810;2022-07-18T13:03:16;1612.22;;;213.82;;
20437;SDS011;17436;50.338;8.810;2022-07-18T13:05:43;1999.90;;;999.90;;
20437;SDS011;17436;50.338;8.810;2022-07-18T13:08:11;1999.90;;;209.23;;
20437;SDS011;17436;50.338;8.810;2022-07-18T13:10:38;1999.90;;;227.73;;
20437;SDS011;17436;50.338;8.810;2022-07-18T13:13:06;1999.90;;;614.38;;
20437;SDS011;17436;50.338;8.810;2022-07-18T13:15:34;1999.90;;;272.63;;
20437;SDS011;17436;50.338;8.810;2022-07-18T13:18:02;1999.90;;;805.92;;
20437;SDS011;17436;50.338;8.810;2022-07-18T13:20:29;1999.90;;;999.90;;
20437;SDS011;17436;50.338;8.810;2022-07-18T13:22:57;1749.00;;;544.30;;
20437;SDS011;17436;50.338;8.810;2022-07-18T13:25:28;1999.90;;;310.17;;
20437;SDS011;17436;50.338;8.810;2022-07-18T13:27:55;1999.90;;;999.90;;
20437;SDS011;17436;50.338;8.810;2022-07-18T13:30:21;1999.90;;;803.83;;
20437;SDS011;17436;50.338;8.810;2022-07-18T13:32:48;1999.90;;;535.28;;
20437;SDS011;17436;50.338;8.810;2022-07-18T13:35:15;1999.90;;;999.90;;
20437;SDS011;17436;50.338;8.810;2022-07-18T13:37:42;1999.90;;;999.90;;
20437;SDS011;17436;50.338;8.810;2022-07-18T13:40:10;1999.90;;;999.90;;
20437;SDS011;17436;50.338;8.810;2022-07-18T13:42:40;1999.90;;;999.90;;
20437;SDS011;17436;50.338;8.810;2022-07-18T13:45:08;1999.90;;;999.90;;
20437;SDS011;17436;50.338;8.810;2022-07-18T13:47:35;1999.90;;;172.70;;
20437;SDS011;17436;50.338;8.810;2022-07-18T13:50:03;1999.90;;;619.13;;
20437;SDS011;17436;50.338;8.810;2022-07-18T13:52:31;1999.90;;;190.57;;
20437;SDS011;17436;50.338;8.810;2022-07-18T13:54:58;1999.90;;;999.90;;
20437;SDS011;17436;50.338;8.810;2022-07-18T13:57:26;1999.90;;;999.90;;
20437;SDS011;17436;50.338;8.810;2022-07-18T13:59:54;1999.90;;;700.25;;
20437;SDS011;17436;50.338;8.810;2022-07-18T14:02:21;1999.90;;;447.73;;
20437;SDS011;17436;50.338;8.810;2022-07-18T14:04:48;1999.90;;;400.30;;
20437;SDS011;17436;50.338;8.810;2022-07-18T14:07:15;1999.90;;;314.30;;
20437;SDS011;17436;50.338;8.810;2022-07-18T14:09:42;1999.90;;;999.90;;
20437;SDS011;17436;50.338;8.810;2022-07-18T14:12:09;1999.90;;;552.92;;
20437;SDS011;17436;50.338;8.810;2022-07-18T14:14:36;1999.90;;;216.75;;
20437;SDS011;17436;50.338;8.810;2022-07-18T14:17:04;1897.00;;;563.03;;
20437;SDS011;17436;50.338;8.810;2022-07-18T14:19:30;1999.90;;;999.90;;
20437;SDS011;17436;50.338;8.810;2022-07-18T14:21:58;1999.90;;;999.90;;
20437;SDS011;17436;50.338;8.810;2022-07-18T14:24:26;1999.90;;;999.90;;
20437;SDS011;17436;50.338;8.810;2022-07-18T14:26:52;1999.90;;;476.77;;